sensor_id;sensor_type;location;lat;lon;timestamp;P1;durP1;ratioP1;P2;durP2;ratioP2
6288;SDS011;3177;49.880;8.836;2023-06-14T00:01:50;6.00;;;4.80;;
6288;SDS011;3177;49.880;8.836;2023-06-14T00:04:17;5.03;;;4.33;;
6288;SDS011;3177;49.880;8.836;2023-06-14T00:06:45;8.47;;;4.20;;
6288;SDS011;3177;49.880;8.836;2023-06-14T00:09:13;7.23;;;4.30;;
6288;SDS011;3177;49.880;8.836;2023-06-14T00:11:42;5.67;;;4.60;;
6288;SDS011;3177;49.880;8.836;2023-06-14T00:14:10;4.10;;;3.70;;
6288;SDS011;3177;49.880;8.836;2023-06-14T00:16:37;6.77;;;5.00;;
6288;SDS011;3177;49.880;8.836;2023-06-14T00:19:07;8.53;;;4.27;;
6288;SDS011;3177;49.880;8.836;2023-06-14T00:21:35;5.93;;;4.10;;
6288;SDS011;3177;49.880;8.836;2023-06-14T00:24:03;6.17;;;4.03;;
6288;SDS011;3177;49.880;8.836;2023-06-14T00:26:30;6.07;;;3.87;;
6288;SDS011;3177;49.880;8.836;2023-06-14T00:28:57;4.13;;;3.83;;
6288;SDS011;3177;49.880;8.836;2023-06-14T00:31:26;4.27;;;3.87;;
6288;SDS011;3177;49.880;8.836;2023-06-14T00:33:53;10.40;;;3.70;;
6288;SDS011;3177;49.880;8.836;2023-06-14T00:36:20;4.43;;;4.03;;
6288;SDS011;3177;49.880;8.836;2023-06-14T00:38:47;3.73;;;3.43;;
6288;SDS011;3177;49.880;8.836;2023-06-14T00:41:14;4.40;;;3.80;;
6288;SDS011;3177;49.880;8.836;2023-06-14T00:43:41;4.90;;;4.47;;
6288;SDS011;3177;49.880;8.836;2023-06-14T00:46:08;4.80;;;4.30;;
6288;SDS011;3177;49.880;8.836;2023-06-14T00:48:37;5.90;;;3.77;;
6288;SDS011;3177;49.880;8.836;2023-06-14T00:51:05;5.07;;;4.00;;
6288;SDS011;3177;49.880;8.836;2023-06-14T00:53:33;4.90;;;4.10;;
6288;SDS011;3177;49.880;8.836;2023-06-14T00:56:00;5.70;;;4.10;;
6288;SDS011;3177;49.880;8.836;2023-06-14T00:58:27;5.50;;;4.57;;
6288;SDS011;3177;49.880;8.836;2023-06-14T01:00:55;4.77;;;4.27;;
6288;SDS011;3177;49.880;8.836;2023-06-14T01:03:23;4.50;;;4.00;;
6288;SDS011;3177;49.880;8.836;2023-06-14T01:05:53;5.57;;;4.30;;
6288;SDS011;3177;49.880;8.836;2023-06-14T01:08:28;3.87;;;3.57;;
6288;SDS011;3177;49.880;8.836;2023-06-14T01:11:00;4.83;;;4.33;;
6288;SDS011;3177;49.880;8.836;2023-06-14T01:13:32;4.73;;;4.33;;
6288;SDS011;3177;49.880;8.836;2023-06-14T01:16:00;5.10;;;4.37;;
6288;SDS011;3177;49.880;8.836;2023-06-14T01:18:27;5.00;;;4.50;;
6288;SDS011;3177;49.880;8.836;2023-06-14T01:20:56;5.57;;;4.60;;
6288;SDS011;3177;49.880;8.836;2023-06-14T01:23:24;5.17;;;3.97;;
6288;SDS011;3177;49.880;8.836;2023-06-14T01:25:58;4.57;;;4.17;;
6288;SDS011;3177;49.880;8.836;2023-06-14T01:28:28;6.27;;;4.63;;
6288;SDS011;3177;49.880;8.836;2023-06-14T01:30:57;9.13;;;4.60;;
6288;SDS011;3177;49.880;8.836;2023-06-14T01:33:28;6.57;;;4.20;;
6288;SDS011;3177;49.880;8.836;2023-06-14T01:35:55;7.70;;;4.50;;
6288;SDS011;3177;49.880;8.836;2023-06-14T01:38:25;5.63;;;4.70;;
6288;SDS011;3177;49.880;8.836;2023-06-14T01:40:52;6.77;;;5.03;;
6288;SDS011;3177;49.880;8.836;2023-06-14T01:43:20;5.20;;;4.70;;
6288;SDS011;3177;49.880;8.836;2023-06-14T01:45:48;9.47;;;4.90;;
6288;SDS011;3177;49.880;8.836;2023-06-14T01:48:15;6.20;;;4.60;;
6288;SDS011;3177;49.880;8.836;2023-06-14T01:50:42;5.73;;;4.67;;
6288;SDS011;3177;49.880;8.836;2023-06-14T01:53:09;8.27;;;4.53;;
6288;SDS011;3177;49.880;8.836;2023-06-14T01:55:38;5.73;;;4.73;;
6288;SDS011;3177;49.880;8.836;2023-06-14T01:58:08;5.67;;;4.23;;
6288;SDS011;3177;49.880;8.836;2023-06-14T02:00:35;6.47;;;4.83;;
6288;SDS011;3177;49.880;8.836;2023-06-14T02:03:02;6.43;;;5.00;;
6288;SDS011;3177;49.880;8.836;2023-06-14T02:05:29;5.37;;;4.60;;
6288;SDS011;3177;49.880;8.836;2023-06-14T02:07:57;5.97;;;4.77;;
6288;SDS011;3177;49.880;8.836;2023-06-14T02:10:24;5.10;;;4.70;;
6288;SDS011;3177;49.880;8.836;2023-06-14T02:12:52;6.73;;;4.90;;
6288;SDS011;3177;49.880;8.836;2023-06-14T02:15:19;5.60;;;4.60;;
6288;SDS011;3177;49.880;8.836;2023-06-14T02:17:47;5.83;;;4.97;;
6288;SDS011;3177;49.880;8.836;2023-06-14T02:20:14;5.20;;;4.77;;
6288;SDS011;3177;49.880;8.836;2023-06-14T02:22:41;5.47;;;5.03;;
6288;SDS011;3177;49.880;8.836;2023-06-14T02:25:08;5.37;;;4.87;;
6288;SDS011;3177;49.880;8.836;2023-06-14T02:27:35;6.40;;;5.17;;
6288;SDS011;3177;49.880;8.836;2023-06-14T02:30:05;5.43;;;4.63;;
6288;SDS011;3177;49.880;8.836;2023-06-14T02:32:32;5.50;;;4.40;;
6288;SDS011;3177;49.880;8.836;2023-06-14T02:35:00;5.77;;;4.80;;
6288;SDS011;3177;49.880;8.836;2023-06-14T02:37:27;4.90;;;4.50;;
6288;SDS011;3177;49.880;8.836;2023-06-14T02:39:55;6.23;;;4.73;;
6288;SDS011;3177;49.880;8.836;2023-06-14T02:42:22;7.13;;;4.97;;
6288;SDS011;3177;49.880;8.836;2023-06-14T02:44:49;6.50;;;5.57;;
6288;SDS011;3177;49.880;8.836;2023-06-14T02:47:18;5.10;;;4.60;;
6288;SDS011;3177;49.880;8.836;2023-06-14T02:49:45;6.23;;;5.40;;
6288;SDS011;3177;49.880;8.836;2023-06-14T02:52:12;6.17;;;4.80;;
6288;SDS011;3177;49.880;8.836;2023-06-14T02:54:39;5.70;;;5.20;;
6288;SDS011;3177;49.880;8.836;2023-06-14T02:57:06;6.23;;;4.90;;
6288;SDS011;3177;49.880;8.836;2023-06-14T02:59:34;5.57;;;4.70;;
6288;SDS011;3177;49.880;8.836;2023-06-14T03:02:01;9.03;;;5.53;;
6288;SDS011;3177;49.880;8.836;2023-06-14T03:04:29;8.90;;;4.60;;
6288;SDS011;3177;49.880;8.836;2023-06-14T03:07:02;7.37;;;5.20;;
6288;SDS011;3177;49.880;8.836;2023-06-14T03:09:33;8.77;;;4.97;;
6288;SDS011;3177;49.880;8.836;2023-06-14T03:12:01;9.20;;;4.83;;
6288;SDS011;3177;49.880;8.836;2023-06-14T03:14:28;5.57;;;4.53;;
6288;SDS011;3177;49.880;8.836;2023-06-14T03:16:55;5.33;;;4.80;;
6288;SDS011;3177;49.880;8.836;2023-06-14T03:19:22;5.50;;;4.97;;
6288;SDS011;3177;49.880;8.836;2023-06-14T03:21:51;5.00;;;4.60;;
6288;SDS011;3177;49.880;8.836;2023-06-14T03:24:22;5.27;;;4.63;;
6288;SDS011;3177;49.880;8.836;2023-06-14T03:26:49;5.33;;;4.83;;
6288;SDS011;3177;49.880;8.836;2023-06-14T03:29:16;5.93;;;5.10;;
6288;SDS011;3177;49.880;8.836;2023-06-14T03:31:56;6.80;;;5.67;;
6288;SDS011;3177;49.880;8.836;2023-06-14T03:34:23;7.33;;;5.43;;
6288;SDS011;3177;49.880;8.836;2023-06-14T03:36:51;9.40;;;5.03;;
6288;SDS011;3177;49.880;8.836;2023-06-14T03:39:18;6.80;;;5.73;;
6288;SDS011;3177;49.880;8.836;2023-06-14T03:41:45;6.33;;;5.23;;
6288;SDS011;3177;49.880;8.836;2023-06-14T03:44:14;6.63;;;5.07;;
6288;SDS011;3177;49.880;8.836;2023-06-14T03:46:41;5.40;;;4.90;;
6288;SDS011;3177;49.880;8.836;2023-06-14T03:49:08;10.10;;;5.50;;
6288;SDS011;3177;49.880;8.836;2023-06-14T03:51:36;6.73;;;5.67;;
6288;SDS011;3177;49.880;8.836;2023-06-14T03:54:04;8.67;;;4.83;;
6288;SDS011;3177;49.880;8.836;2023-06-14T03:56:31;7.47;;;5.13;;
6288;SDS011;3177;49.880;8.836;2023-06-14T03:58:58;7.37;;;5.13;;
6288;SDS011;3177;49.880;8.836;2023-06-14T04:01:25;6.47;;;5.23;;
6288;SDS011;3177;49.880;8.836;2023-06-14T04:03:54;6.43;;;4.90;;
6288;SDS011;3177;49.880;8.836;2023-06-14T04:06:22;7.07;;;5.53;;
6288;SDS011;3177;49.880;8.836;2023-06-14T04:08:50;6.00;;;5.40;;
6288;SDS011;3177;49.880;8.836;2023-06-14T04:11:19;5.93;;;4.97;;
6288;SDS011;3177;49.880;8.836;2023-06-14T04:13:46;8.87;;;4.80;;
6288;SDS011;3177;49.880;8.836;2023-06-14T04:16:13;6.43;;;4.87;;
6288;SDS011;3177;49.880;8.836;2023-06-14T04:18:40;7.73;;;5.50;;
6288;SDS011;3177;49.880;8.836;2023-06-14T04:21:08;7.40;;;5.13;;
6288;SDS011;3177;49.880;8.836;2023-06-14T04:23:35;7.03;;;4.87;;
6288;SDS011;3177;49.880;8.836;2023-06-14T04:26:03;5.50;;;4.97;;
6288;SDS011;3177;49.880;8.836;2023-06-14T04:28:32;5.73;;;4.90;;
6288;SDS011;3177;49.880;8.836;2023-06-14T04:31:02;5.47;;;5.07;;
6288;SDS011;3177;49.880;8.836;2023-06-14T04:33:29;7.80;;;5.20;;
6288;SDS011;3177;49.880;8.836;2023-06-14T04:35:56;5.70;;;5.10;;
6288;SDS011;3177;49.880;8.836;2023-06-14T04:38:25;6.17;;;5.57;;
6288;SDS011;3177;49.880;8.836;2023-06-14T04:40:53;9.03;;;5.60;;
6288;SDS011;3177;49.880;8.836;2023-06-14T04:43:22;9.03;;;6.23;;
6288;SDS011;3177;49.880;8.836;2023-06-14T04:45:52;8.00;;;5.90;;
6288;SDS011;3177;49.880;8.836;2023-06-14T04:48:21;6.87;;;6.13;;
6288;SDS011;3177;49.880;8.836;2023-06-14T04:50:48;12.13;;;6.07;;
6288;SDS011;3177;49.880;8.836;2023-06-14T04:53:17;7.03;;;5.50;;
6288;SDS011;3177;49.880;8.836;2023-06-14T04:55:47;8.13;;;5.73;;
6288;SDS011;3177;49.880;8.836;2023-06-14T04:58:15;8.13;;;5.00;;
6288;SDS011;3177;49.880;8.836;2023-06-14T05:00:42;6.13;;;5.33;;
6288;SDS011;3177;49.880;8.836;2023-06-14T05:03:10;6.93;;;5.77;;
6288;SDS011;3177;49.880;8.836;2023-06-14T05:05:39;6.30;;;5.57;;
6288;SDS011;3177;49.880;8.836;2023-06-14T05:08:06;8.23;;;5.23;;
6288;SDS011;3177;49.880;8.836;2023-06-14T05:10:33;6.20;;;5.60;;
6288;SDS011;3177;49.880;8.836;2023-06-14T05:13:01;6.97;;;4.83;;
6288;SDS011;3177;49.880;8.836;2023-06-14T05:15:28;6.67;;;4.77;;
6288;SDS011;3177;49.880;8.836;2023-06-14T05:17:55;9.80;;;5.20;;
6288;SDS011;3177;49.880;8.836;2023-06-14T05:20:24;7.17;;;5.13;;
6288;SDS011;3177;49.880;8.836;2023-06-14T05:22:52;5.53;;;4.47;;
6288;SDS011;3177;49.880;8.836;2023-06-14T05:25:19;7.13;;;4.63;;
6288;SDS011;3177;49.880;8.836;2023-06-14T05:27:46;5.83;;;4.70;;
6288;SDS011;3177;49.880;8.836;2023-06-14T05:30:13;5.93;;;4.50;;
6288;SDS011;3177;49.880;8.836;2023-06-14T05:32:40;5.53;;;4.90;;
6288;SDS011;3177;49.880;8.836;2023-06-14T05:35:08;5.33;;;4.63;;
6288;SDS011;3177;49.880;8.836;2023-06-14T05:37:37;6.13;;;3.83;;
6288;SDS011;3177;49.880;8.836;2023-06-14T05:40:04;6.03;;;4.47;;
6288;SDS011;3177;49.880;8.836;2023-06-14T05:42:31;5.10;;;4.50;;
6288;SDS011;3177;49.880;8.836;2023-06-14T05:44:58;6.87;;;4.43;;
6288;SDS011;3177;49.880;8.836;2023-06-14T05:47:26;4.67;;;3.83;;
6288;SDS011;3177;49.880;8.836;2023-06-14T05:49:53;4.30;;;3.90;;
6288;SDS011;3177;49.880;8.836;2023-06-14T05:52:20;4.47;;;4.03;;
6288;SDS011;3177;49.880;8.836;2023-06-14T05:54:48;4.60;;;3.50;;
6288;SDS011;3177;49.880;8.836;2023-06-14T05:57:16;3.73;;;3.43;;
6288;SDS011;3177;49.880;8.836;2023-06-14T05:59:43;5.60;;;3.93;;
6288;SDS011;3177;49.880;8.836;2023-06-14T06:02:10;3.50;;;3.20;;
6288;SDS011;3177;49.880;8.836;2023-06-14T06:04:37;9.07;;;5.30;;
6288;SDS011;3177;49.880;8.836;2023-06-14T06:07:04;5.93;;;3.47;;
6288;SDS011;3177;49.880;8.836;2023-06-14T06:09:32;4.50;;;3.63;;
6288;SDS011;3177;49.880;8.836;2023-06-14T06:12:00;5.77;;;3.80;;
6288;SDS011;3177;49.880;8.836;2023-06-14T06:14:27;4.00;;;3.57;;
6288;SDS011;3177;49.880;8.836;2023-06-14T06:16:55;11.40;;;4.87;;
6288;SDS011;3177;49.880;8.836;2023-06-14T06:19:22;8.13;;;3.83;;
6288;SDS011;3177;49.880;8.836;2023-06-14T06:21:49;5.07;;;3.23;;
6288;SDS011;3177;49.880;8.836;2023-06-14T06:24:16;3.70;;;3.37;;
6288;SDS011;3177;49.880;8.836;2023-06-14T06:26:43;3.63;;;3.33;;
6288;SDS011;3177;49.880;8.836;2023-06-14T06:29:11;5.90;;;3.53;;
6288;SDS011;3177;49.880;8.836;2023-06-14T06:31:39;6.47;;;3.90;;
6288;SDS011;3177;49.880;8.836;2023-06-14T06:34:06;3.80;;;3.40;;
6288;SDS011;3177;49.880;8.836;2023-06-14T06:36:33;4.38;;;3.35;;
6288;SDS011;3177;49.880;8.836;2023-06-14T06:39:00;6.00;;;3.67;;
6288;SDS011;3177;49.880;8.836;2023-06-14T06:41:34;4.05;;;3.30;;
6288;SDS011;3177;49.880;8.836;2023-06-14T06:44:02;8.45;;;3.70;;
6288;SDS011;3177;49.880;8.836;2023-06-14T06:46:31;8.20;;;3.30;;
6288;SDS011;3177;49.880;8.836;2023-06-14T06:48:58;4.45;;;3.15;;
6288;SDS011;3177;49.880;8.836;2023-06-14T06:51:26;6.68;;;3.65;;
6288;SDS011;3177;49.880;8.836;2023-06-14T06:53:53;4.28;;;3.38;;
6288;SDS011;3177;49.880;8.836;2023-06-14T06:56:20;6.88;;;3.22;;
6288;SDS011;3177;49.880;8.836;2023-06-14T06:58:48;4.13;;;3.40;;
6288;SDS011;3177;49.880;8.836;2023-06-14T07:01:15;5.63;;;3.10;;
6288;SDS011;3177;49.880;8.836;2023-06-14T07:03:45;2.70;;;2.47;;
6288;SDS011;3177;49.880;8.836;2023-06-14T07:06:12;3.97;;;3.13;;
6288;SDS011;3177;49.880;8.836;2023-06-14T07:08:39;3.55;;;2.97;;
6288;SDS011;3177;49.880;8.836;2023-06-14T07:11:06;3.05;;;2.70;;
6288;SDS011;3177;49.880;8.836;2023-06-14T07:13:33;5.55;;;2.80;;
6288;SDS011;3177;49.880;8.836;2023-06-14T07:16:00;3.20;;;2.90;;
6288;SDS011;3177;49.880;8.836;2023-06-14T07:18:29;3.15;;;2.85;;
6288;SDS011;3177;49.880;8.836;2023-06-14T07:20:57;3.67;;;3.08;;
6288;SDS011;3177;49.880;8.836;2023-06-14T07:23:25;2.78;;;2.50;;
6288;SDS011;3177;49.880;8.836;2023-06-14T07:25:52;4.20;;;2.63;;
6288;SDS011;3177;49.880;8.836;2023-06-14T07:28:19;4.88;;;2.78;;
6288;SDS011;3177;49.880;8.836;2023-06-14T07:30:46;3.00;;;2.70;;
6288;SDS011;3177;49.880;8.836;2023-06-14T07:33:14;4.03;;;3.47;;
6288;SDS011;3177;49.880;8.836;2023-06-14T07:35:41;2.67;;;2.47;;
6288;SDS011;3177;49.880;8.836;2023-06-14T07:38:09;7.68;;;2.42;;
6288;SDS011;3177;49.880;8.836;2023-06-14T07:40:36;2.65;;;2.45;;
6288;SDS011;3177;49.880;8.836;2023-06-14T07:43:03;3.13;;;2.70;;
6288;SDS011;3177;49.880;8.836;2023-06-14T07:45:30;2.67;;;2.40;;
6288;SDS011;3177;49.880;8.836;2023-06-14T07:47:57;4.20;;;2.53;;
6288;SDS011;3177;49.880;8.836;2023-06-14T07:50:24;2.90;;;2.40;;
6288;SDS011;3177;49.880;8.836;2023-06-14T07:52:51;2.75;;;2.28;;
6288;SDS011;3177;49.880;8.836;2023-06-14T07:55:20;3.17;;;2.47;;
6288;SDS011;3177;49.880;8.836;2023-06-14T07:57:47;2.63;;;2.20;;
6288;SDS011;3177;49.880;8.836;2023-06-14T08:00:14;4.65;;;2.38;;
6288;SDS011;3177;49.880;8.836;2023-06-14T08:02:43;3.88;;;2.40;;
6288;SDS011;3177;49.880;8.836;2023-06-14T08:05:10;3.22;;;2.50;;
6288;SDS011;3177;49.880;8.836;2023-06-14T08:07:37;2.63;;;2.20;;
6288;SDS011;3177;49.880;8.836;2023-06-14T08:10:05;3.60;;;2.22;;
6288;SDS011;3177;49.880;8.836;2023-06-14T08:12:33;3.20;;;2.10;;
6288;SDS011;3177;49.880;8.836;2023-06-14T08:15:00;2.65;;;2.20;;
6288;SDS011;3177;49.880;8.836;2023-06-14T08:17:27;4.25;;;2.33;;
6288;SDS011;3177;49.880;8.836;2023-06-14T08:19:55;4.43;;;3.38;;
6288;SDS011;3177;49.880;8.836;2023-06-14T08:22:22;3.75;;;2.40;;
6288;SDS011;3177;49.880;8.836;2023-06-14T08:24:51;3.92;;;2.50;;
6288;SDS011;3177;49.880;8.836;2023-06-14T08:27:19;7.00;;;2.85;;
6288;SDS011;3177;49.880;8.836;2023-06-14T08:29:47;5.80;;;2.08;;
6288;SDS011;3177;49.880;8.836;2023-06-14T08:32:15;3.42;;;2.10;;
6288;SDS011;3177;49.880;8.836;2023-06-14T08:34:42;2.53;;;1.98;;
6288;SDS011;3177;49.880;8.836;2023-06-14T08:37:09;2.95;;;2.17;;
6288;SDS011;3177;49.880;8.836;2023-06-14T08:39:36;4.65;;;1.90;;
6288;SDS011;3177;49.880;8.836;2023-06-14T08:42:03;4.18;;;2.20;;
6288;SDS011;3177;49.880;8.836;2023-06-14T08:44:32;2.10;;;1.90;;
6288;SDS011;3177;49.880;8.836;2023-06-14T08:47:01;2.25;;;2.05;;
6288;SDS011;3177;49.880;8.836;2023-06-14T08:49:28;4.13;;;1.60;;
6288;SDS011;3177;49.880;8.836;2023-06-14T08:51:57;3.63;;;1.80;;
6288;SDS011;3177;49.880;8.836;2023-06-14T08:54:25;2.20;;;1.63;;
6288;SDS011;3177;49.880;8.836;2023-06-14T08:56:54;3.60;;;1.90;;
6288;SDS011;3177;49.880;8.836;2023-06-14T08:59:23;1.88;;;1.77;;
6288;SDS011;3177;49.880;8.836;2023-06-14T09:01:51;1.77;;;1.55;;
6288;SDS011;3177;49.880;8.836;2023-06-14T09:04:20;1.63;;;1.52;;
6288;SDS011;3177;49.880;8.836;2023-06-14T09:06:49;1.95;;;1.50;;
6288;SDS011;3177;49.880;8.836;2023-06-14T09:09:18;3.40;;;1.90;;
6288;SDS011;3177;49.880;8.836;2023-06-14T09:11:45;1.85;;;1.75;;
6288;SDS011;3177;49.880;8.836;2023-06-14T09:14:12;2.05;;;1.83;;
6288;SDS011;3177;49.880;8.836;2023-06-14T09:16:39;1.95;;;1.73;;
6288;SDS011;3177;49.880;8.836;2023-06-14T09:19:07;1.75;;;1.65;;
6288;SDS011;3177;49.880;8.836;2023-06-14T09:21:35;1.90;;;1.70;;
6288;SDS011;3177;49.880;8.836;2023-06-14T09:24:02;1.50;;;1.40;;
6288;SDS011;3177;49.880;8.836;2023-06-14T09:26:31;1.63;;;1.52;;
6288;SDS011;3177;49.880;8.836;2023-06-14T09:28:58;2.10;;;1.70;;
6288;SDS011;3177;49.880;8.836;2023-06-14T09:31:25;4.25;;;1.80;;
6288;SDS011;3177;49.880;8.836;2023-06-14T09:33:56;1.73;;;1.40;;
6288;SDS011;3177;49.880;8.836;2023-06-14T09:36:24;1.48;;;1.38;;
6288;SDS011;3177;49.880;8.836;2023-06-14T09:38:52;2.15;;;1.52;;
6288;SDS011;3177;49.880;8.836;2023-06-14T09:41:20;2.45;;;1.88;;
6288;SDS011;3177;49.880;8.836;2023-06-14T09:43:47;2.95;;;1.55;;
6288;SDS011;3177;49.880;8.836;2023-06-14T09:46:14;1.67;;;1.58;;
6288;SDS011;3177;49.880;8.836;2023-06-14T09:48:41;1.60;;;1.50;;
6288;SDS011;3177;49.880;8.836;2023-06-14T09:51:09;2.10;;;1.73;;
6288;SDS011;3177;49.880;8.836;2023-06-14T09:53:37;2.13;;;1.75;;
6288;SDS011;3177;49.880;8.836;2023-06-14T09:56:05;1.70;;;1.58;;
6288;SDS011;3177;49.880;8.836;2023-06-14T09:58:32;2.25;;;1.55;;
6288;SDS011;3177;49.880;8.836;2023-06-14T10:01:02;1.85;;;1.70;;
6288;SDS011;3177;49.880;8.836;2023-06-14T10:03:30;1.33;;;1.33;;
6288;SDS011;3177;49.880;8.836;2023-06-14T10:05:58;2.55;;;1.90;;
6288;SDS011;3177;49.880;8.836;2023-06-14T10:08:27;1.65;;;1.55;;
6288;SDS011;3177;49.880;8.836;2023-06-14T10:10:55;2.03;;;1.67;;
6288;SDS011;3177;49.880;8.836;2023-06-14T10:13:23;2.42;;;1.60;;
6288;SDS011;3177;49.880;8.836;2023-06-14T10:15:54;1.67;;;1.58;;
6288;SDS011;3177;49.880;8.836;2023-06-14T10:18:24;2.55;;;1.70;;
6288;SDS011;3177;49.880;8.836;2023-06-14T10:20:55;3.63;;;1.65;;
6288;SDS011;3177;49.880;8.836;2023-06-14T10:23:25;1.40;;;1.30;;
6288;SDS011;3177;49.880;8.836;2023-06-14T10:25:54;1.90;;;1.75;;
6288;SDS011;3177;49.880;8.836;2023-06-14T10:28:23;3.30;;;1.50;;
6288;SDS011;3177;49.880;8.836;2023-06-14T10:33:33;1.52;;;1.42;;
6288;SDS011;3177;49.880;8.836;2023-06-14T10:36:07;2.50;;;2.00;;
6288;SDS011;3177;49.880;8.836;2023-06-14T10:38:36;2.08;;;1.85;;
6288;SDS011;3177;49.880;8.836;2023-06-14T10:41:03;2.15;;;1.70;;
6288;SDS011;3177;49.880;8.836;2023-06-14T10:43:32;5.35;;;1.85;;
6288;SDS011;3177;49.880;8.836;2023-06-14T10:46:15;3.40;;;1.60;;
6288;SDS011;3177;49.880;8.836;2023-06-14T10:48:42;2.45;;;1.77;;
6288;SDS011;3177;49.880;8.836;2023-06-14T10:51:15;2.28;;;1.80;;
6288;SDS011;3177;49.880;8.836;2023-06-14T10:53:45;1.92;;;1.60;;
6288;SDS011;3177;49.880;8.836;2023-06-14T10:56:22;3.17;;;2.20;;
6288;SDS011;3177;49.880;8.836;2023-06-14T10:58:52;2.00;;;1.85;;
6288;SDS011;3177;49.880;8.836;2023-06-14T11:01:23;2.40;;;2.20;;
6288;SDS011;3177;49.880;8.836;2023-06-14T11:03:50;2.60;;;2.00;;
6288;SDS011;3177;49.880;8.836;2023-06-14T11:06:20;2.13;;;1.92;;
6288;SDS011;3177;49.880;8.836;2023-06-14T11:11:34;2.20;;;2.00;;
6288;SDS011;3177;49.880;8.836;2023-06-14T11:14:03;1.92;;;1.67;;
6288;SDS011;3177;49.880;8.836;2023-06-14T11:16:31;2.13;;;2.03;;
6288;SDS011;3177;49.880;8.836;2023-06-14T11:18:59;3.00;;;1.90;;
6288;SDS011;3177;49.880;8.836;2023-06-14T11:21:28;2.42;;;2.13;;
6288;SDS011;3177;49.880;8.836;2023-06-14T11:23:56;3.00;;;1.98;;
6288;SDS011;3177;49.880;8.836;2023-06-14T11:26:27;2.00;;;1.80;;
6288;SDS011;3177;49.880;8.836;2023-06-14T11:28:57;2.42;;;1.90;;
6288;SDS011;3177;49.880;8.836;2023-06-14T11:31:27;2.85;;;2.00;;
6288;SDS011;3177;49.880;8.836;2023-06-14T11:33:54;4.20;;;2.30;;
6288;SDS011;3177;49.880;8.836;2023-06-14T11:36:21;3.03;;;2.30;;
6288;SDS011;3177;49.880;8.836;2023-06-14T11:38:49;3.20;;;2.47;;
6288;SDS011;3177;49.880;8.836;2023-06-14T11:41:16;3.85;;;2.17;;
6288;SDS011;3177;49.880;8.836;2023-06-14T11:43:43;2.28;;;2.03;;
6288;SDS011;3177;49.880;8.836;2023-06-14T11:46:13;2.10;;;1.70;;
6288;SDS011;3177;49.880;8.836;2023-06-14T11:48:43;2.00;;;1.83;;
6288;SDS011;3177;49.880;8.836;2023-06-14T11:51:10;2.45;;;2.25;;
6288;SDS011;3177;49.880;8.836;2023-06-14T11:53:37;2.10;;;1.90;;
6288;SDS011;3177;49.880;8.836;2023-06-14T11:56:05;1.80;;;1.70;;
6288;SDS011;3177;49.880;8.836;2023-06-14T11:58:32;4.13;;;1.95;;
6288;SDS011;3177;49.880;8.836;2023-06-14T12:00:59;2.30;;;2.10;;
6288;SDS011;3177;49.880;8.836;2023-06-14T12:03:27;2.63;;;2.20;;
6288;SDS011;3177;49.880;8.836;2023-06-14T12:06:08;2.20;;;2.00;;
6288;SDS011;3177;49.880;8.836;2023-06-14T12:08:35;2.90;;;2.08;;
6288;SDS011;3177;49.880;8.836;2023-06-14T12:11:05;3.50;;;2.22;;
6288;SDS011;3177;49.880;8.836;2023-06-14T12:13:33;1.90;;;1.80;;
6288;SDS011;3177;49.880;8.836;2023-06-14T12:16:01;2.50;;;1.88;;
6288;SDS011;3177;49.880;8.836;2023-06-14T12:18:32;2.33;;;2.10;;
6288;SDS011;3177;49.880;8.836;2023-06-14T12:21:00;3.58;;;1.85;;
6288;SDS011;3177;49.880;8.836;2023-06-14T12:23:39;2.97;;;1.98;;
6288;SDS011;3177;49.880;8.836;2023-06-14T12:26:06;1.92;;;1.83;;
6288;SDS011;3177;49.880;8.836;2023-06-14T12:28:33;4.22;;;2.13;;
6288;SDS011;3177;49.880;8.836;2023-06-14T12:31:00;3.90;;;2.10;;
6288;SDS011;3177;49.880;8.836;2023-06-14T12:33:28;3.22;;;2.63;;
6288;SDS011;3177;49.880;8.836;2023-06-14T12:35:55;2.17;;;1.90;;
6288;SDS011;3177;49.880;8.836;2023-06-14T12:38:23;3.78;;;1.95;;
6288;SDS011;3177;49.880;8.836;2023-06-14T12:40:51;3.40;;;2.00;;
6288;SDS011;3177;49.880;8.836;2023-06-14T12:43:18;1.80;;;1.70;;
6288;SDS011;3177;49.880;8.836;2023-06-14T12:45:45;4.25;;;2.30;;
6288;SDS011;3177;49.880;8.836;2023-06-14T12:48:12;4.88;;;1.83;;
6288;SDS011;3177;49.880;8.836;2023-06-14T12:50:40;3.83;;;2.00;;
6288;SDS011;3177;49.880;8.836;2023-06-14T12:53:07;3.33;;;2.30;;
6288;SDS011;3177;49.880;8.836;2023-06-14T12:55:34;3.70;;;2.45;;
6288;SDS011;3177;49.880;8.836;2023-06-14T12:58:02;2.30;;;2.10;;
6288;SDS011;3177;49.880;8.836;2023-06-14T13:00:30;2.40;;;2.03;;
6288;SDS011;3177;49.880;8.836;2023-06-14T13:02:57;2.95;;;2.17;;
6288;SDS011;3177;49.880;8.836;2023-06-14T13:05:24;2.08;;;1.90;;
6288;SDS011;3177;49.880;8.836;2023-06-14T13:07:51;4.65;;;1.90;;
6288;SDS011;3177;49.880;8.836;2023-06-14T13:10:18;2.20;;;2.00;;
6288;SDS011;3177;49.880;8.836;2023-06-14T13:12:45;4.10;;;2.20;;
6288;SDS011;3177;49.880;8.836;2023-06-14T13:15:13;5.25;;;1.98;;
6288;SDS011;3177;49.880;8.836;2023-06-14T13:17:40;2.13;;;2.03;;
6288;SDS011;3177;49.880;8.836;2023-06-14T13:20:09;3.03;;;2.00;;
6288;SDS011;3177;49.880;8.836;2023-06-14T13:22:36;4.55;;;2.15;;
6288;SDS011;3177;49.880;8.836;2023-06-14T13:25:05;2.28;;;1.95;;
6288;SDS011;3177;49.880;8.836;2023-06-14T13:27:32;3.63;;;2.15;;
6288;SDS011;3177;49.880;8.836;2023-06-14T13:29:59;2.10;;;1.90;;
6288;SDS011;3177;49.880;8.836;2023-06-14T13:32:28;2.17;;;1.98;;
6288;SDS011;3177;49.880;8.836;2023-06-14T13:34:55;2.47;;;1.88;;
6288;SDS011;3177;49.880;8.836;2023-06-14T13:37:22;2.42;;;1.73;;
6288;SDS011;3177;49.880;8.836;2023-06-14T13:39:49;3.75;;;2.00;;
6288;SDS011;3177;49.880;8.836;2023-06-14T13:42:16;4.15;;;1.73;;
6288;SDS011;3177;49.880;8.836;2023-06-14T13:44:43;2.20;;;2.10;;
6288;SDS011;3177;49.880;8.836;2023-06-14T13:47:10;7.68;;;2.25;;
6288;SDS011;3177;49.880;8.836;2023-06-14T13:49:38;13.50;;;2.97;;
6288;SDS011;3177;49.880;8.836;2023-06-14T13:52:06;3.10;;;2.15;;
6288;SDS011;3177;49.880;8.836;2023-06-14T13:54:33;2.20;;;2.00;;
6288;SDS011;3177;49.880;8.836;2023-06-14T13:57:01;2.10;;;1.90;;
6288;SDS011;3177;49.880;8.836;2023-06-14T13:59:28;2.58;;;1.77;;
6288;SDS011;3177;49.880;8.836;2023-06-14T14:01:56;3.20;;;2.15;;
6288;SDS011;3177;49.880;8.836;2023-06-14T14:04:23;2.80;;;2.13;;
6288;SDS011;3177;49.880;8.836;2023-06-14T14:06:51;5.05;;;2.00;;
6288;SDS011;3177;49.880;8.836;2023-06-14T14:09:18;2.65;;;1.83;;
6288;SDS011;3177;49.880;8.836;2023-06-14T14:11:45;2.55;;;1.95;;
6288;SDS011;3177;49.880;8.836;2023-06-14T14:14:13;5.03;;;2.10;;
6288;SDS011;3177;49.880;8.836;2023-06-14T14:16:40;2.17;;;2.00;;
6288;SDS011;3177;49.880;8.836;2023-06-14T14:19:08;4.35;;;2.20;;
6288;SDS011;3177;49.880;8.836;2023-06-14T14:21:35;3.25;;;1.98;;
6288;SDS011;3177;49.880;8.836;2023-06-14T14:24:04;3.95;;;2.08;;
6288;SDS011;3177;49.880;8.836;2023-06-14T14:26:31;4.13;;;2.10;;
6288;SDS011;3177;49.880;8.836;2023-06-14T14:28:58;2.35;;;2.13;;
6288;SDS011;3177;49.880;8.836;2023-06-14T14:31:27;2.70;;;2.13;;
6288;SDS011;3177;49.880;8.836;2023-06-14T14:33:54;2.10;;;1.90;;
6288;SDS011;3177;49.880;8.836;2023-06-14T14:36:21;3.90;;;2.08;;
6288;SDS011;3177;49.880;8.836;2023-06-14T14:38:48;1.90;;;1.80;;
6288;SDS011;3177;49.880;8.836;2023-06-14T14:41:18;5.95;;;2.20;;
6288;SDS011;3177;49.880;8.836;2023-06-14T14:43:45;2.83;;;1.67;;
6288;SDS011;3177;49.880;8.836;2023-06-14T14:46:12;5.93;;;2.33;;
6288;SDS011;3177;49.880;8.836;2023-06-14T14:48:41;2.45;;;2.25;;
6288;SDS011;3177;49.880;8.836;2023-06-14T14:51:08;2.47;;;1.77;;
6288;SDS011;3177;49.880;8.836;2023-06-14T14:53:35;2.50;;;2.10;;
6288;SDS011;3177;49.880;8.836;2023-06-14T14:56:03;2.65;;;2.30;;
6288;SDS011;3177;49.880;8.836;2023-06-14T14:58:31;4.30;;;2.15;;
6288;SDS011;3177;49.880;8.836;2023-06-14T15:00:58;2.53;;;2.10;;
6288;SDS011;3177;49.880;8.836;2023-06-14T15:03:25;3.38;;;2.05;;
6288;SDS011;3177;49.880;8.836;2023-06-14T15:05:52;2.70;;;2.17;;
6288;SDS011;3177;49.880;8.836;2023-06-14T15:08:19;3.78;;;1.95;;
6288;SDS011;3177;49.880;8.836;2023-06-14T15:10:46;2.67;;;1.98;;
6288;SDS011;3177;49.880;8.836;2023-06-14T15:13:14;4.07;;;2.20;;
6288;SDS011;3177;49.880;8.836;2023-06-14T15:15:42;2.63;;;1.70;;
6288;SDS011;3177;49.880;8.836;2023-06-14T15:18:09;1.80;;;1.70;;
6288;SDS011;3177;49.880;8.836;2023-06-14T15:20:36;1.90;;;1.80;;
6288;SDS011;3177;49.880;8.836;2023-06-14T15:23:03;2.30;;;1.90;;
6288;SDS011;3177;49.880;8.836;2023-06-14T15:25:30;8.88;;;1.77;;